createdAt,value
2018-05-18T00:01:15.120Z,54.10
2018-05-18T00:03:41.438Z,54.00
2018-05-18T00:06:08.911Z,54.00
2018-05-18T00:08:35.641Z,54.00
2018-05-18T00:11:02.348Z,54.00
2018-05-18T00:13:30.686Z,54.00
2018-05-18T00:15:57.222Z,52.40
2018-05-18T00:18:25.880Z,51.80
2018-05-18T00:20:52.453Z,51.60
2018-05-18T00:23:19.067Z,51.80
2018-05-18T00:25:45.539Z,52.70
2018-05-18T00:28:12.046Z,52.50
2018-05-18T00:30:38.313Z,52.30
2018-05-18T00:33:04.684Z,51.80
2018-05-18T00:35:31.131Z,51.90
2018-05-18T00:37:57.526Z,52.50
2018-05-18T00:40:24.439Z,52.20
2018-05-18T00:42:50.875Z,52.20
2018-05-18T00:45:17.254Z,52.80
2018-05-18T00:47:43.670Z,52.80
2018-05-18T00:50:09.983Z,53.70
2018-05-18T00:52:36.330Z,53.50
2018-05-18T00:55:03.734Z,53.50
2018-05-18T00:57:31.165Z,53.90
2018-05-18T00:59:58.994Z,53.90
2018-05-18T01:02:25.311Z,53.80
2018-05-18T01:04:51.564Z,53.80
2018-05-18T01:07:18.104Z,53.60
2018-05-18T01:09:44.680Z,53.70
2018-05-18T01:12:11.211Z,53.80
2018-05-18T01:14:39.572Z,54.40
2018-05-18T01:17:06.136Z,54.40
2018-05-18T01:19:33.955Z,53.60
2018-05-18T01:22:01.106Z,53.50
2018-05-18T01:24:27.728Z,54.00
2018-05-18T01:27:00.081Z,54.60
2018-05-18T01:29:27.073Z,55.10
2018-05-18T01:31:53.895Z,54.20
2018-05-18T01:34:20.380Z,54.80
2018-05-18T01:36:46.782Z,55.30
2018-05-18T01:39:13.547Z,55.40
2018-05-18T01:41:40.035Z,55.80
2018-05-18T01:44:06.457Z,56.10
2018-05-18T01:46:32.867Z,56.10
2018-05-18T01:48:59.259Z,56.30
2018-05-18T01:51:26.179Z,56.30
2018-05-18T01:53:52.643Z,56.40
2018-05-18T01:56:19.294Z,57.20
2018-05-18T01:58:45.631Z,57.00
2018-05-18T02:01:12.621Z,57.20
2018-05-18T02:03:39.532Z,57.60
2018-05-18T02:06:06.020Z,57.50
2018-05-18T02:08:32.420Z,58.00
2018-05-18T02:10:59.074Z,58.80
2018-05-18T02:13:25.382Z,59.30
2018-05-18T02:15:51.642Z,59.70
2018-05-18T02:18:17.906Z,60.00
2018-05-18T02:20:44.244Z,60.40
2018-05-18T02:23:10.572Z,60.80
2018-05-18T02:25:36.840Z,60.10
2018-05-18T02:28:04.098Z,60.70
2018-05-18T02:30:30.483Z,60.60
2018-05-18T02:32:56.789Z,60.20
2018-05-18T02:35:23.155Z,61.40
2018-05-18T02:37:49.448Z,61.80
2018-05-18T02:40:16.948Z,61.30
2018-05-18T02:42:43.252Z,61.30
2018-05-18T02:45:09.591Z,60.70
2018-05-18T02:47:36.016Z,60.30
2018-05-18T02:50:02.586Z,60.70
2018-05-18T02:52:29.237Z,61.20
2018-05-18T02:54:56.461Z,61.70
2018-05-18T02:57:23.075Z,61.70
2018-05-18T02:59:49.543Z,61.60
2018-05-18T03:02:16.275Z,61.20
2018-05-18T03:04:42.650Z,61.60
2018-05-18T03:07:08.908Z,61.80
2018-05-18T03:09:35.187Z,62.70
2018-05-18T03:12:01.701Z,62.70
2018-05-18T03:14:28.039Z,62.70
2018-05-18T03:17:02.516Z,62.70
2018-05-18T03:19:28.904Z,62.60
2018-05-18T03:21:55.440Z,62.60
2018-05-18T03:24:21.884Z,62.50
2018-05-18T03:26:49.278Z,62.70
2018-05-18T03:29:15.507Z,62.50
2018-05-18T03:31:41.815Z,62.50
2018-05-18T03:34:11.105Z,62.40
2018-05-18T03:36:37.423Z,62.40
2018-05-18T03:39:03.691Z,62.70
2018-05-18T03:41:30.134Z,63.50
2018-05-18T03:43:56.657Z,62.40
2018-05-18T03:46:23.988Z,62.90
2018-05-18T03:48:50.267Z,63.90
2018-05-18T03:51:16.495Z,64.10
2018-05-18T03:53:42.790Z,62.90
2018-05-18T03:56:09.403Z,63.60
2018-05-18T03:58:35.692Z,63.70
2018-05-18T04:01:02.703Z,63.60
2018-05-18T04:03:41.323Z,63.50
2018-05-18T04:06:19.681Z,64.20
2018-05-18T04:08:52.983Z,63.50
2018-05-18T04:11:19.437Z,63.20
2018-05-18T04:13:45.777Z,63.40
2018-05-18T04:16:27.044Z,62.40
2018-05-18T04:18:58.763Z,62.50
2018-05-18T04:21:25.137Z,63.40
2018-05-18T04:23:52.590Z,63.50
2018-05-18T04:26:22.784Z,63.40
2018-05-18T04:28:49.055Z,63.40
2018-05-18T04:31:18.312Z,62.70
2018-05-18T04:33:44.748Z,62.70
2018-05-18T04:36:11.252Z,63.20
2018-05-18T04:38:38.426Z,62.90
2018-05-18T04:41:06.806Z,63.00
2018-05-18T04:43:33.280Z,63.00
2018-05-18T04:45:59.769Z,62.90
2018-05-18T04:48:26.100Z,63.00
2018-05-18T04:50:52.606Z,63.10
2018-05-18T04:53:19.743Z,63.10
2018-05-18T04:55:46.200Z,63.10
2018-05-18T04:58:12.553Z,63.10
2018-05-18T05:00:40.522Z,63.10
2018-05-18T05:03:07.282Z,63.20
2018-05-18T05:05:33.661Z,63.30
2018-05-18T05:08:00.239Z,62.00
2018-05-18T05:10:27.827Z,61.10
2018-05-18T05:12:56.987Z,61.70
2018-05-18T05:15:24.794Z,61.20
2018-05-18T05:17:51.504Z,60.00
2018-05-18T05:20:19.470Z,58.60
2018-05-18T05:22:50.749Z,58.70
2018-05-18T05:25:17.445Z,58.90
2018-05-18T05:27:46.306Z,58.30
2018-05-18T05:30:13.904Z,58.20
2018-05-18T05:32:41.529Z,57.50
2018-05-18T05:35:08.123Z,57.70
2018-05-18T05:37:35.366Z,57.40
2018-05-18T05:40:05.901Z,57.40
2018-05-18T05:42:56.998Z,58.00
2018-05-18T05:45:25.261Z,57.70
2018-05-18T05:47:51.588Z,57.70
2018-05-18T05:50:27.226Z,57.80
2018-05-18T05:52:54.444Z,57.70
2018-05-18T05:55:21.066Z,57.70
2018-05-18T05:57:48.541Z,57.00
2018-05-18T06:00:16.273Z,56.30
2018-05-18T06:02:43.852Z,55.90
2018-05-18T06:05:18.731Z,55.60
2018-05-18T06:07:47.265Z,55.50
2018-05-18T06:10:18.077Z,54.90
2018-05-18T06:12:53.315Z,54.90
2018-05-18T06:15:25.815Z,54.20
2018-05-18T06:17:58.181Z,54.40
2018-05-18T06:20:32.295Z,54.50
2018-05-18T06:22:59.675Z,52.20
2018-05-18T06:25:27.700Z,52.20
2018-05-18T06:27:55.598Z,52.70
2018-05-18T06:30:22.187Z,52.50
2018-05-18T06:32:50.732Z,50.60
2018-05-18T06:35:27.777Z,51.00
2018-05-18T06:37:58.055Z,50.40
2018-05-18T06:40:30.981Z,50.70
2018-05-18T06:43:03.241Z,48.80
2018-05-18T06:45:29.865Z,48.30
2018-05-18T06:48:22.160Z,47.80
2018-05-18T06:53:51.738Z,48.50
2018-05-18T06:56:26.788Z,47.50
2018-05-18T06:59:01.004Z,46.80
2018-05-18T07:01:29.596Z,46.20
2018-05-18T07:03:56.230Z,46.00
2018-05-18T07:06:27.152Z,46.00
2018-05-18T07:08:54.310Z,46.10
2018-05-18T07:11:21.416Z,45.50
2018-05-18T07:13:50.371Z,45.60
2018-05-18T07:16:23.305Z,44.90
2018-05-18T07:24:57.867Z,45.10
2018-05-18T07:27:24.391Z,43.70
2018-05-18T07:35:57.519Z,43.60
2018-05-18T07:38:27.909Z,41.90
2018-05-18T07:50:05.558Z,42.40
2018-05-18T07:58:58.318Z,43.50
2018-05-18T08:04:28.943Z,41.90
2018-05-18T08:09:58.657Z,41.80
2018-05-18T08:12:27.212Z,41.40
2018-05-18T08:14:54.068Z,42.00
2018-05-18T08:17:20.454Z,42.30
2018-05-18T08:19:48.268Z,41.80
2018-05-18T08:22:26.772Z,41.40
2018-05-18T08:24:59.548Z,39.60
2018-05-18T08:30:49.713Z,41.10
2018-05-18T08:33:29.143Z,39.40
2018-05-18T08:35:59.254Z,37.60
2018-05-18T08:38:29.477Z,38.30
2018-05-18T08:41:02.495Z,38.90
2018-05-18T08:43:29.048Z,37.40
2018-05-18T08:45:59.070Z,38.30
2018-05-18T08:48:25.329Z,37.40
2018-05-18T08:50:51.777Z,39.30
2018-05-18T08:53:18.173Z,38.10
2018-05-18T08:55:46.517Z,37.60
2018-05-18T08:58:12.865Z,35.70
2018-05-18T09:03:28.709Z,35.70
2018-05-18T09:08:59.964Z,37.90
2018-05-18T09:11:28.175Z,37.90
2018-05-18T09:13:54.561Z,38.10
2018-05-18T09:16:20.847Z,38.10
2018-05-18T09:18:47.500Z,36.70
2018-05-18T09:21:15.158Z,36.70
2018-05-18T09:23:42.590Z,37.00
2018-05-18T09:26:09.278Z,37.00
2018-05-18T09:28:35.744Z,36.30
2018-05-18T09:31:02.217Z,36.40
2018-05-18T09:33:28.880Z,35.80
2018-05-18T09:35:55.278Z,35.00
2018-05-18T09:38:22.673Z,36.40
2018-05-18T09:40:49.121Z,37.00
2018-05-18T09:43:28.343Z,36.30
2018-05-18T09:45:54.794Z,36.00
2018-05-18T09:48:24.339Z,38.50
2018-05-18T09:50:54.023Z,36.20
2018-05-18T09:53:21.139Z,36.40
2018-05-18T09:55:47.761Z,36.30
2018-05-18T09:58:14.408Z,36.60
2018-05-18T10:00:41.263Z,37.50
2018-05-18T10:03:08.155Z,38.20
2018-05-18T10:05:34.585Z,38.10
2018-05-18T10:08:01.422Z,38.10
2018-05-18T10:10:27.741Z,38.10
2018-05-18T10:12:54.052Z,37.20
2018-05-18T10:15:20.478Z,37.00
2018-05-18T10:17:47.152Z,36.10
2018-05-18T10:20:13.657Z,36.20
2018-05-18T10:22:41.625Z,36.90
2018-05-18T10:25:07.920Z,36.20
2018-05-18T10:27:34.297Z,37.10
2018-05-18T10:30:00.718Z,37.00
2018-05-18T10:32:27.360Z,37.00
2018-05-18T10:34:54.378Z,35.70
2018-05-18T10:37:21.347Z,38.00
2018-05-18T10:39:47.748Z,37.90
2018-05-18T10:42:14.501Z,38.20
2018-05-18T10:44:40.994Z,37.60
2018-05-18T10:47:07.449Z,37.40
2018-05-18T10:49:33.912Z,35.60
2018-05-18T10:52:00.316Z,34.40
2018-05-18T10:54:26.731Z,35.70
2018-05-18T10:56:53.217Z,35.20
2018-05-18T10:59:19.527Z,36.40
2018-05-18T11:01:46.845Z,35.20
2018-05-18T11:04:14.129Z,36.00
2018-05-18T11:06:40.558Z,35.40
2018-05-18T11:09:06.868Z,31.50
2018-05-18T11:11:33.687Z,33.00
2018-05-18T11:14:00.288Z,32.20
2018-05-18T11:16:28.057Z,32.80
2018-05-18T11:18:54.512Z,33.80
2018-05-18T11:21:22.270Z,32.80
2018-05-18T11:23:49.405Z,33.10
2018-05-18T11:26:15.799Z,32.70
2018-05-18T11:28:48.043Z,32.70
2018-05-18T11:31:15.149Z,33.10
2018-05-18T11:33:46.126Z,33.10
2018-05-18T11:36:12.670Z,32.60
2018-05-18T11:38:39.405Z,32.90
2018-05-18T11:41:06.882Z,33.70
2018-05-18T11:43:33.293Z,32.90
2018-05-18T11:45:59.611Z,33.00
2018-05-18T11:48:26.840Z,31.40
2018-05-18T11:50:53.340Z,31.30
2018-05-18T11:53:19.893Z,34.30
2018-05-18T11:55:46.185Z,32.50
2018-05-18T11:58:16.408Z,33.10
2018-05-18T12:00:45.563Z,32.80
2018-05-18T12:03:14.601Z,33.40
2018-05-18T12:05:42.175Z,33.50
2018-05-18T12:08:11.205Z,31.50
2018-05-18T12:10:38.719Z,31.90
2018-05-18T12:13:05.835Z,32.40
2018-05-18T12:15:32.741Z,32.40
2018-05-18T12:18:00.478Z,33.20
2018-05-18T12:20:26.974Z,31.00
2018-05-18T12:22:54.864Z,31.40
2018-05-18T12:25:21.995Z,32.00
2018-05-18T12:27:49.124Z,34.10
2018-05-18T12:30:15.511Z,34.00
2018-05-18T12:32:46.371Z,32.50
2018-05-18T12:35:15.693Z,33.10
2018-05-18T12:37:43.649Z,35.50
2018-05-18T12:40:09.898Z,34.50
2018-05-18T12:42:45.549Z,34.70
2018-05-18T12:45:14.821Z,33.20
2018-05-18T12:47:42.601Z,32.10
2018-05-18T12:52:44.148Z,32.60
2018-05-18T12:55:16.846Z,31.50
2018-05-18T12:57:46.856Z,32.40
2018-05-18T13:00:13.464Z,32.00
2018-05-18T13:02:39.854Z,32.60
2018-05-18T13:05:06.123Z,31.50
2018-05-18T13:07:33.491Z,32.70
2018-05-18T13:10:00.089Z,32.60
2018-05-18T13:12:26.559Z,33.20
2018-05-18T13:14:53.012Z,31.70
2018-05-18T13:17:23.999Z,32.50
2018-05-18T13:19:57.906Z,31.90
2018-05-18T13:22:24.175Z,33.30
2018-05-18T13:24:57.801Z,32.40
2018-05-18T13:27:28.384Z,32.30
2018-05-18T13:29:55.916Z,31.80
2018-05-18T13:32:22.675Z,32.70
2018-05-18T13:34:58.262Z,31.50
2018-05-18T13:37:29.074Z,34.10
2018-05-18T13:45:26.937Z,31.70
2018-05-18T13:47:58.591Z,32.50
2018-05-18T13:50:27.499Z,33.50
2018-05-18T13:52:57.401Z,32.10
2018-05-18T13:55:27.417Z,32.20
2018-05-18T13:57:57.069Z,32.20
2018-05-18T14:00:28.314Z,32.00
2018-05-18T14:02:57.462Z,32.10
2018-05-18T14:05:29.770Z,33.00
2018-05-18T14:07:58.510Z,34.70
2018-05-18T14:10:28.638Z,35.00
2018-05-18T14:12:56.982Z,34.30
2018-05-18T14:15:26.984Z,34.00
2018-05-18T14:17:57.997Z,34.80
2018-05-18T14:20:28.718Z,36.30
2018-05-18T14:23:00.086Z,36.20
2018-05-18T14:25:28.483Z,37.40
2018-05-18T14:27:59.095Z,37.10
2018-05-18T14:30:26.715Z,36.60
2018-05-18T14:32:55.917Z,36.00
2018-05-18T14:35:30.174Z,36.70
2018-05-18T14:37:59.262Z,36.80
2018-05-18T14:40:27.438Z,37.40
2018-05-18T14:42:59.784Z,37.90
2018-05-18T14:48:30.869Z,38.40
2018-05-18T14:50:58.008Z,38.30
2018-05-18T14:53:28.000Z,38.30
2018-05-18T14:55:54.826Z,38.40
2018-05-18T14:58:28.633Z,38.80
2018-05-18T15:00:59.530Z,38.40
2018-05-18T15:03:29.462Z,38.60
2018-05-18T15:08:44.200Z,37.90
2018-05-18T15:11:18.440Z,39.20
2018-05-18T15:13:46.282Z,38.50
2018-05-18T15:16:17.049Z,38.30
2018-05-18T15:18:47.610Z,37.80
2018-05-18T15:24:17.548Z,39.00
2018-05-18T15:26:45.658Z,38.70
2018-05-18T15:29:14.352Z,39.20
2018-05-18T15:31:47.588Z,39.20
2018-05-18T15:34:16.679Z,39.80
2018-05-18T15:36:43.431Z,39.50
2018-05-18T15:39:11.785Z,39.20
2018-05-18T15:41:47.024Z,39.50
2018-05-18T15:44:17.181Z,40.00
2018-05-18T15:46:47.344Z,40.20
2018-05-18T15:49:18.003Z,38.80
2018-05-18T15:51:48.233Z,38.90
2018-05-18T15:54:16.141Z,40.40
2018-05-18T16:02:47.133Z,39.80
2018-05-18T16:05:16.620Z,39.80
2018-05-18T16:19:57.631Z,40.00
2018-05-18T16:22:31.687Z,40.40
2018-05-18T16:24:58.736Z,39.80
2018-05-18T16:27:28.199Z,40.20
2018-05-18T16:29:58.296Z,40.20
2018-05-18T16:32:27.454Z,40.40
2018-05-18T16:34:57.988Z,39.60
2018-05-18T16:37:25.920Z,40.60
2018-05-18T16:40:00.495Z,40.50
2018-05-18T16:42:35.976Z,40.30
2018-05-18T16:45:03.031Z,39.80
2018-05-18T16:47:30.022Z,40.70
2018-05-18T16:50:01.394Z,40.50
2018-05-18T16:52:27.939Z,40.40
2018-05-18T16:54:56.174Z,40.20
2018-05-18T16:57:27.729Z,40.80
2018-05-18T17:00:02.145Z,40.30
2018-05-18T17:02:29.091Z,40.50
2018-05-18T17:04:58.162Z,40.10
2018-05-18T17:07:25.110Z,40.60
2018-05-18T17:09:58.654Z,40.20
2018-05-18T17:12:27.967Z,41.10
2018-05-18T17:14:58.340Z,40.50
2018-05-18T17:17:29.961Z,41.80
2018-05-18T17:19:58.683Z,41.50
2018-05-18T17:28:34.470Z,40.80
2018-05-18T17:31:01.008Z,40.70
2018-05-18T17:33:29.093Z,40.80
2018-05-18T17:35:59.723Z,41.60
2018-05-18T17:41:00.919Z,41.70
2018-05-18T17:46:31.847Z,43.40
2018-05-18T17:48:58.818Z,41.90
2018-05-18T17:51:29.388Z,42.50
2018-05-18T17:53:59.368Z,42.20
2018-05-18T17:56:27.950Z,41.50
2018-05-18T17:58:56.531Z,42.20
2018-05-18T18:01:27.195Z,42.50
2018-05-18T18:03:53.946Z,42.40
2018-05-18T18:06:21.022Z,43.00
2018-05-18T18:08:47.809Z,43.10
2018-05-18T18:11:15.155Z,43.70
2018-05-18T18:13:45.415Z,43.70
2018-05-18T18:16:13.694Z,43.80
2018-05-18T18:18:40.252Z,43.80
2018-05-18T18:21:06.920Z,43.90
2018-05-18T18:23:33.394Z,44.20
2018-05-18T18:25:59.730Z,44.40
2018-05-18T18:28:26.201Z,44.50
2018-05-18T18:30:53.412Z,44.20
2018-05-18T18:33:23.206Z,44.20
2018-05-18T18:35:49.533Z,44.90
2018-05-18T18:38:16.887Z,44.90
2018-05-18T18:40:43.263Z,45.90
2018-05-18T18:43:12.297Z,46.00
2018-05-18T18:45:38.568Z,45.80
2018-05-18T18:48:04.895Z,46.60
2018-05-18T18:50:31.175Z,46.50
2018-05-18T18:52:57.737Z,46.40
2018-05-18T18:55:24.200Z,47.00
2018-05-18T18:57:50.493Z,46.50
2018-05-18T19:00:18.714Z,46.90
2018-05-18T19:02:45.130Z,47.00
2018-05-18T19:05:11.434Z,47.70
2018-05-18T19:07:38.537Z,48.00
2018-05-18T19:10:05.052Z,48.60
2018-05-18T19:12:31.652Z,47.80
2018-05-18T19:15:00.746Z,48.30
2018-05-18T19:17:28.023Z,48.30
2018-05-18T19:19:56.670Z,48.70
2018-05-18T19:22:23.759Z,49.40
2018-05-18T19:24:49.957Z,49.40
2018-05-18T19:27:16.512Z,50.10
2018-05-18T19:29:42.811Z,50.40
2018-05-18T19:32:09.723Z,51.00
2018-05-18T19:34:35.958Z,50.90
2018-05-18T19:37:02.315Z,51.20
2018-05-18T19:39:28.625Z,51.80
2018-05-18T19:41:54.848Z,52.30
2018-05-18T19:44:21.092Z,52.20
2018-05-18T19:46:47.453Z,51.60
2018-05-18T19:49:13.683Z,52.50
2018-05-18T19:51:39.907Z,52.50
2018-05-18T19:54:06.137Z,53.20
2018-05-18T19:56:32.602Z,53.30
2018-05-18T19:58:59.308Z,53.00
2018-05-18T20:01:25.516Z,52.70
2018-05-18T20:03:58.805Z,54.30
2018-05-18T20:06:28.528Z,54.70
2018-05-18T20:08:55.108Z,54.60
2018-05-18T20:11:28.435Z,54.70
2018-05-18T20:13:58.276Z,54.60
2018-05-18T20:16:28.771Z,54.70
2018-05-18T20:18:59.240Z,54.70
2018-05-18T20:21:29.444Z,54.60
2018-05-18T20:23:57.797Z,55.30
2018-05-18T20:26:27.695Z,55.80
2018-05-18T20:28:57.724Z,55.60
2018-05-18T20:31:30.560Z,55.70
2018-05-18T20:33:57.746Z,55.60
2018-05-18T20:36:29.273Z,55.80
2018-05-18T20:38:58.637Z,55.70
2018-05-18T20:41:27.893Z,56.00
2018-05-18T20:43:58.013Z,56.10
2018-05-18T20:46:30.422Z,56.50
2018-05-18T20:48:58.250Z,56.80
2018-05-18T20:51:29.249Z,57.10
2018-05-18T20:53:59.668Z,57.20
2018-05-18T20:56:29.932Z,57.80
2018-05-18T20:58:58.317Z,57.80
2018-05-18T21:01:28.449Z,58.20
2018-05-18T21:03:57.074Z,58.10
2018-05-18T21:06:26.006Z,58.20
2018-05-18T21:08:52.358Z,58.50
2018-05-18T21:11:22.300Z,58.70
2018-05-18T21:13:57.920Z,58.90
2018-05-18T21:16:25.106Z,58.60
2018-05-18T21:18:54.722Z,58.90
2018-05-18T21:21:27.655Z,58.80
2018-05-18T21:26:57.346Z,58.80
2018-05-18T21:29:25.342Z,59.90
2018-05-18T21:31:51.761Z,59.80
2018-05-18T21:34:18.184Z,59.90
2018-05-18T21:36:54.425Z,59.90
2018-05-18T21:39:20.869Z,59.90
2018-05-18T21:41:52.638Z,59.80
2018-05-18T21:44:27.722Z,59.90
2018-05-18T21:47:00.203Z,60.00
2018-05-18T21:49:27.144Z,60.60
2018-05-18T21:51:57.318Z,61.70
2018-05-18T21:54:26.577Z,61.30
2018-05-18T21:56:57.855Z,61.40
2018-05-18T21:59:27.934Z,61.30
2018-05-18T22:01:54.707Z,61.30
2018-05-18T22:04:23.888Z,61.10
2018-05-18T22:06:53.170Z,61.10
2018-05-18T22:09:19.921Z,60.90
2018-05-18T22:11:46.508Z,61.10
2018-05-18T22:14:13.911Z,61.20
2018-05-18T22:16:40.230Z,60.60
2018-05-18T22:19:06.974Z,60.40
2018-05-18T22:21:33.321Z,60.30
2018-05-18T22:23:59.655Z,60.10
2018-05-18T22:26:26.090Z,60.30
2018-05-18T22:28:52.486Z,60.50
2018-05-18T22:31:19.015Z,60.80
2018-05-18T22:33:45.340Z,63.00
2018-05-18T22:36:11.597Z,62.60
2018-05-18T22:38:37.808Z,63.60
2018-05-18T22:41:04.087Z,63.60
2018-05-18T22:43:30.555Z,63.50
2018-05-18T22:45:57.007Z,63.50
2018-05-18T22:48:23.297Z,63.60
2018-05-18T22:50:49.546Z,63.60
2018-05-18T22:53:15.886Z,63.10
2018-05-18T22:55:43.420Z,63.60
2018-05-18T22:58:09.996Z,63.60
2018-05-18T23:00:38.206Z,63.40
2018-05-18T23:03:04.555Z,63.70
2018-05-18T23:05:30.899Z,63.50
2018-05-18T23:07:57.183Z,62.90
2018-05-18T23:10:23.465Z,63.50
2018-05-18T23:12:49.777Z,63.40
2018-05-18T23:15:16.007Z,63.40
2018-05-18T23:17:43.331Z,63.40
2018-05-18T23:20:09.616Z,63.50
2018-05-18T23:22:35.979Z,63.40
2018-05-18T23:25:02.998Z,63.20
2018-05-18T23:27:29.535Z,63.20
2018-05-18T23:29:55.750Z,62.80
2018-05-18T23:32:22.038Z,63.00
2018-05-18T23:34:48.422Z,63.40
2018-05-18T23:37:14.686Z,63.40
2018-05-18T23:39:40.959Z,63.40
2018-05-18T23:42:07.380Z,63.30
2018-05-18T23:44:33.675Z,63.70
2018-05-18T23:47:00.036Z,63.70
2018-05-18T23:49:26.326Z,63.40
2018-05-18T23:51:52.672Z,63.30
2018-05-18T23:54:19.075Z,63.30
2018-05-18T23:56:45.304Z,63.30
2018-05-18T23:59:11.626Z,63.30
